sensor_id;sensor_type;location;lat;lon;timestamp;P1;durP1;ratioP1;P2;durP2;ratioP2
51228;SDS011;37304;52.216;6.874;2023-05-10T00:02:01;8.50;;;3.50;;
51228;SDS011;37304;52.216;6.874;2023-05-10T00:07:02;4.22;;;2.50;;
51228;SDS011;37304;52.216;6.874;2023-05-10T00:12:02;4.43;;;2.00;;
51228;SDS011;37304;52.216;6.874;2023-05-10T00:17:03;4.33;;;2.30;;
51228;SDS011;37304;52.216;6.874;2023-05-10T00:22:03;3.23;;;2.23;;
51228;SDS011;37304;52.216;6.874;2023-05-10T00:27:03;4.73;;;1.90;;
51228;SDS011;37304;52.216;6.874;2023-05-10T00:32:04;3.30;;;2.17;;
51228;SDS011;37304;52.216;6.874;2023-05-10T00:37:04;3.22;;;1.73;;
51228;SDS011;37304;52.216;6.874;2023-05-10T00:42:04;4.20;;;2.07;;
51228;SDS011;37304;52.216;6.874;2023-05-10T00:47:05;4.10;;;2.00;;
51228;SDS011;37304;52.216;6.874;2023-05-10T00:52:05;5.65;;;2.60;;
51228;SDS011;37304;52.216;6.874;2023-05-10T00:57:06;5.65;;;3.28;;
51228;SDS011;37304;52.216;6.874;2023-05-10T01:02:06;7.30;;;3.03;;
51228;SDS011;37304;52.216;6.874;2023-05-10T01:07:07;5.47;;;3.60;;
51228;SDS011;37304;52.216;6.874;2023-05-10T01:12:07;6.07;;;3.80;;
51228;SDS011;37304;52.216;6.874;2023-05-10T01:17:08;7.05;;;3.63;;
51228;SDS011;37304;52.216;6.874;2023-05-10T01:32:56;7.72;;;3.90;;
51228;SDS011;37304;52.216;6.874;2023-05-10T01:43:19;6.28;;;3.75;;
51228;SDS011;37304;52.216;6.874;2023-05-10T01:48:24;9.20;;;4.40;;
51228;SDS011;37304;52.216;6.874;2023-05-10T01:53:27;7.05;;;4.00;;
51228;SDS011;37304;52.216;6.874;2023-05-10T01:58:30;6.40;;;3.83;;
51228;SDS011;37304;52.216;6.874;2023-05-10T02:03:32;7.07;;;4.13;;
51228;SDS011;37304;52.216;6.874;2023-05-10T02:08:35;8.07;;;4.10;;
51228;SDS011;37304;52.216;6.874;2023-05-10T02:13:37;7.65;;;3.88;;
51228;SDS011;37304;52.216;6.874;2023-05-10T02:18:39;6.25;;;4.00;;
51228;SDS011;37304;52.216;6.874;2023-05-10T02:23:41;6.22;;;3.92;;
51228;SDS011;37304;52.216;6.874;2023-05-10T02:28:43;8.30;;;3.88;;
51228;SDS011;37304;52.216;6.874;2023-05-10T02:33:44;9.13;;;4.45;;
51228;SDS011;37304;52.216;6.874;2023-05-10T02:38:45;7.95;;;3.28;;
51228;SDS011;37304;52.216;6.874;2023-05-10T02:43:51;8.05;;;4.07;;
51228;SDS011;37304;52.216;6.874;2023-05-10T02:48:54;7.60;;;3.83;;
51228;SDS011;37304;52.216;6.874;2023-05-10T02:53:55;9.00;;;4.82;;
51228;SDS011;37304;52.216;6.874;2023-05-10T02:58:57;6.80;;;4.07;;
51228;SDS011;37304;52.216;6.874;2023-05-10T03:03:57;8.20;;;4.37;;
51228;SDS011;37304;52.216;6.874;2023-05-10T03:08:57;11.40;;;4.97;;
51228;SDS011;37304;52.216;6.874;2023-05-10T03:19:11;9.55;;;4.10;;
51228;SDS011;37304;52.216;6.874;2023-05-10T03:24:18;10.13;;;4.43;;
51228;SDS011;37304;52.216;6.874;2023-05-10T03:29:21;12.15;;;5.15;;
51228;SDS011;37304;52.216;6.874;2023-05-10T03:34:23;13.13;;;5.53;;
51228;SDS011;37304;52.216;6.874;2023-05-10T03:39:24;13.93;;;5.95;;
51228;SDS011;37304;52.216;6.874;2023-05-10T03:44:24;18.30;;;7.73;;
51228;SDS011;37304;52.216;6.874;2023-05-10T03:49:25;16.57;;;6.33;;
51228;SDS011;37304;52.216;6.874;2023-05-10T03:54:25;16.37;;;6.90;;
51228;SDS011;37304;52.216;6.874;2023-05-10T03:59:26;23.45;;;8.05;;
51228;SDS011;37304;52.216;6.874;2023-05-10T04:04:26;21.27;;;8.13;;
51228;SDS011;37304;52.216;6.874;2023-05-10T04:09:27;23.63;;;9.00;;
51228;SDS011;37304;52.216;6.874;2023-05-10T04:14:27;21.23;;;8.43;;
51228;SDS011;37304;52.216;6.874;2023-05-10T04:19:31;23.90;;;8.98;;
51228;SDS011;37304;52.216;6.874;2023-05-10T04:24:31;24.25;;;8.88;;
51228;SDS011;37304;52.216;6.874;2023-05-10T04:29:32;26.57;;;8.97;;
51228;SDS011;37304;52.216;6.874;2023-05-10T04:34:32;28.80;;;9.70;;
51228;SDS011;37304;52.216;6.874;2023-05-10T04:39:34;26.48;;;9.65;;
51228;SDS011;37304;52.216;6.874;2023-05-10T04:44:35;25.05;;;9.48;;
51228;SDS011;37304;52.216;6.874;2023-05-10T04:49:36;30.42;;;10.98;;
51228;SDS011;37304;52.216;6.874;2023-05-10T04:54:36;34.63;;;11.03;;
51228;SDS011;37304;52.216;6.874;2023-05-10T04:59:37;31.97;;;11.77;;
51228;SDS011;37304;52.216;6.874;2023-05-10T05:04:37;41.75;;;12.18;;
51228;SDS011;37304;52.216;6.874;2023-05-10T05:09:38;36.90;;;11.97;;
51228;SDS011;37304;52.216;6.874;2023-05-10T05:14:38;38.37;;;12.60;;
51228;SDS011;37304;52.216;6.874;2023-05-10T05:19:38;43.87;;;14.20;;
51228;SDS011;37304;52.216;6.874;2023-05-10T05:24:38;38.60;;;13.27;;
51228;SDS011;37304;52.216;6.874;2023-05-10T05:29:39;51.47;;;14.37;;
51228;SDS011;37304;52.216;6.874;2023-05-10T05:34:39;39.33;;;13.83;;
51228;SDS011;37304;52.216;6.874;2023-05-10T05:39:39;39.10;;;15.00;;
51228;SDS011;37304;52.216;6.874;2023-05-10T05:44:40;41.63;;;14.37;;
51228;SDS011;37304;52.216;6.874;2023-05-10T05:49:40;47.33;;;14.55;;
51228;SDS011;37304;52.216;6.874;2023-05-10T05:54:41;42.93;;;15.50;;
51228;SDS011;37304;52.216;6.874;2023-05-10T05:59:41;38.97;;;13.23;;
51228;SDS011;37304;52.216;6.874;2023-05-10T06:04:43;38.72;;;13.88;;
51228;SDS011;37304;52.216;6.874;2023-05-10T06:09:44;41.13;;;14.23;;
51228;SDS011;37304;52.216;6.874;2023-05-10T06:14:44;44.87;;;15.17;;
51228;SDS011;37304;52.216;6.874;2023-05-10T06:19:44;33.27;;;12.70;;
51228;SDS011;37304;52.216;6.874;2023-05-10T06:24:45;37.90;;;15.30;;
51228;SDS011;37304;52.216;6.874;2023-05-10T06:29:45;37.53;;;12.63;;
51228;SDS011;37304;52.216;6.874;2023-05-10T06:34:45;37.37;;;14.90;;
51228;SDS011;37304;52.216;6.874;2023-05-10T06:39:46;37.60;;;13.32;;
51228;SDS011;37304;52.216;6.874;2023-05-10T06:44:46;38.13;;;13.83;;
51228;SDS011;37304;52.216;6.874;2023-05-10T06:49:47;37.70;;;13.30;;
51228;SDS011;37304;52.216;6.874;2023-05-10T06:54:47;34.53;;;13.03;;
51228;SDS011;37304;52.216;6.874;2023-05-10T06:59:47;37.50;;;12.90;;
51228;SDS011;37304;52.216;6.874;2023-05-10T07:04:48;32.73;;;13.60;;
51228;SDS011;37304;52.216;6.874;2023-05-10T07:09:48;33.08;;;13.45;;
51228;SDS011;37304;52.216;6.874;2023-05-10T07:14:49;39.75;;;14.25;;
51228;SDS011;37304;52.216;6.874;2023-05-10T07:19:50;37.97;;;13.60;;
51228;SDS011;37304;52.216;6.874;2023-05-10T07:24:50;33.17;;;12.63;;
51228;SDS011;37304;52.216;6.874;2023-05-10T07:29:51;34.27;;;14.17;;
51228;SDS011;37304;52.216;6.874;2023-05-10T07:34:51;33.20;;;12.90;;
51228;SDS011;37304;52.216;6.874;2023-05-10T07:39:52;39.20;;;13.52;;
51228;SDS011;37304;52.216;6.874;2023-05-10T07:44:53;33.23;;;12.67;;
51228;SDS011;37304;52.216;6.874;2023-05-10T07:49:53;37.20;;;13.73;;
51228;SDS011;37304;52.216;6.874;2023-05-10T07:54:53;28.27;;;11.00;;
51228;SDS011;37304;52.216;6.874;2023-05-10T07:59:54;30.08;;;9.65;;
51228;SDS011;37304;52.216;6.874;2023-05-10T08:04:55;25.50;;;11.13;;
51228;SDS011;37304;52.216;6.874;2023-05-10T08:09:55;22.98;;;9.38;;
51228;SDS011;37304;52.216;6.874;2023-05-10T08:14:56;24.43;;;9.47;;
51228;SDS011;37304;52.216;6.874;2023-05-10T08:19:56;26.05;;;9.90;;
51228;SDS011;37304;52.216;6.874;2023-05-10T08:24:57;27.67;;;9.37;;
51228;SDS011;37304;52.216;6.874;2023-05-10T08:29:57;21.60;;;9.07;;
51228;SDS011;37304;52.216;6.874;2023-05-10T08:34:58;30.93;;;10.50;;
51228;SDS011;37304;52.216;6.874;2023-05-10T08:39:58;27.77;;;10.32;;
51228;SDS011;37304;52.216;6.874;2023-05-10T08:44:59;26.63;;;9.53;;
51228;SDS011;37304;52.216;6.874;2023-05-10T08:49:59;26.20;;;8.90;;
51228;SDS011;37304;52.216;6.874;2023-05-10T08:55:00;26.02;;;10.00;;
51228;SDS011;37304;52.216;6.874;2023-05-10T09:00:01;29.20;;;9.67;;
51228;SDS011;37304;52.216;6.874;2023-05-10T09:05:01;24.38;;;9.32;;
51228;SDS011;37304;52.216;6.874;2023-05-10T09:10:04;25.98;;;9.75;;
51228;SDS011;37304;52.216;6.874;2023-05-10T09:15:06;24.33;;;9.70;;
51228;SDS011;37304;52.216;6.874;2023-05-10T09:20:09;27.50;;;10.25;;
51228;SDS011;37304;52.216;6.874;2023-05-10T09:25:11;27.42;;;8.35;;
51228;SDS011;37304;52.216;6.874;2023-05-10T09:30:18;22.15;;;9.10;;
51228;SDS011;37304;52.216;6.874;2023-05-10T09:35:25;27.15;;;8.57;;
51228;SDS011;37304;52.216;6.874;2023-05-10T09:40:27;26.80;;;9.57;;
51228;SDS011;37304;52.216;6.874;2023-05-10T09:45:30;25.95;;;9.45;;
51228;SDS011;37304;52.216;6.874;2023-05-10T09:50:32;24.83;;;8.77;;
51228;SDS011;37304;52.216;6.874;2023-05-10T09:55:44;27.30;;;9.68;;
51228;SDS011;37304;52.216;6.874;2023-05-10T10:00:46;25.38;;;9.25;;
51228;SDS011;37304;52.216;6.874;2023-05-10T10:05:52;22.08;;;7.35;;
51228;SDS011;37304;52.216;6.874;2023-05-10T10:10:53;20.60;;;7.50;;
51228;SDS011;37304;52.216;6.874;2023-05-10T10:15:53;18.67;;;7.50;;
51228;SDS011;37304;52.216;6.874;2023-05-10T10:20:54;16.80;;;6.05;;
51228;SDS011;37304;52.216;6.874;2023-05-10T10:25:56;17.45;;;6.80;;
51228;SDS011;37304;52.216;6.874;2023-05-10T10:30:56;21.80;;;8.77;;
51228;SDS011;37304;52.216;6.874;2023-05-10T10:36:11;20.95;;;8.45;;
51228;SDS011;37304;52.216;6.874;2023-05-10T10:46:36;23.48;;;9.13;;
51228;SDS011;37304;52.216;6.874;2023-05-10T10:57:20;26.05;;;8.45;;
51228;SDS011;37304;52.216;6.874;2023-05-10T11:02:32;18.50;;;7.28;;
51228;SDS011;37304;52.216;6.874;2023-05-10T11:07:34;18.98;;;7.13;;
51228;SDS011;37304;52.216;6.874;2023-05-10T11:12:34;17.23;;;6.93;;
51228;SDS011;37304;52.216;6.874;2023-05-10T11:23:28;14.70;;;6.25;;
51228;SDS011;37304;52.216;6.874;2023-05-10T11:33:30;11.90;;;6.17;;
51228;SDS011;37304;52.216;6.874;2023-05-10T11:38:46;17.50;;;5.80;;
51228;SDS011;37304;52.216;6.874;2023-05-10T11:43:47;12.57;;;6.07;;
51228;SDS011;37304;52.216;6.874;2023-05-10T11:48:51;13.77;;;6.07;;
51228;SDS011;37304;52.216;6.874;2023-05-10T11:53:53;15.68;;;7.03;;
51228;SDS011;37304;52.216;6.874;2023-05-10T11:58:55;14.68;;;6.28;;
51228;SDS011;37304;52.216;6.874;2023-05-10T12:03:57;14.18;;;5.55;;
51228;SDS011;37304;52.216;6.874;2023-05-10T12:09:00;11.73;;;5.10;;
51228;SDS011;37304;52.216;6.874;2023-05-10T12:14:05;12.13;;;5.32;;
51228;SDS011;37304;52.216;6.874;2023-05-10T12:19:06;11.32;;;5.20;;
51228;SDS011;37304;52.216;6.874;2023-05-10T12:24:07;12.40;;;5.43;;
51228;SDS011;37304;52.216;6.874;2023-05-10T12:29:19;13.17;;;6.20;;
51228;SDS011;37304;52.216;6.874;2023-05-10T12:34:53;14.07;;;5.90;;
51228;SDS011;37304;52.216;6.874;2023-05-10T12:39:46;10.77;;;5.57;;
51228;SDS011;37304;52.216;6.874;2023-05-10T12:44:47;12.17;;;5.60;;
51228;SDS011;37304;52.216;6.874;2023-05-10T12:49:47;14.57;;;5.57;;
51228;SDS011;37304;52.216;6.874;2023-05-10T12:54:47;11.07;;;4.90;;
51228;SDS011;37304;52.216;6.874;2023-05-10T12:59:49;9.52;;;4.30;;
51228;SDS011;37304;52.216;6.874;2023-05-10T13:04:49;10.73;;;4.30;;
51228;SDS011;37304;52.216;6.874;2023-05-10T13:09:50;9.35;;;4.55;;
51228;SDS011;37304;52.216;6.874;2023-05-10T13:14:50;9.33;;;4.73;;
51228;SDS011;37304;52.216;6.874;2023-05-10T13:19:51;9.43;;;4.50;;
51228;SDS011;37304;52.216;6.874;2023-05-10T13:24:51;10.77;;;4.60;;
51228;SDS011;37304;52.216;6.874;2023-05-10T13:29:51;7.67;;;3.80;;
51228;SDS011;37304;52.216;6.874;2023-05-10T13:34:52;11.52;;;4.60;;
51228;SDS011;37304;52.216;6.874;2023-05-10T13:39:53;8.57;;;3.77;;
51228;SDS011;37304;52.216;6.874;2023-05-10T13:44:53;9.50;;;4.70;;
51228;SDS011;37304;52.216;6.874;2023-05-10T13:49:53;9.90;;;4.07;;
51228;SDS011;37304;52.216;6.874;2023-05-10T13:54:54;12.80;;;4.38;;
51228;SDS011;37304;52.216;6.874;2023-05-10T13:59:55;9.15;;;4.45;;
51228;SDS011;37304;52.216;6.874;2023-05-10T14:04:57;9.50;;;4.07;;
51228;SDS011;37304;52.216;6.874;2023-05-10T14:10:00;7.07;;;3.40;;
51228;SDS011;37304;52.216;6.874;2023-05-10T14:15:01;8.45;;;3.83;;
51228;SDS011;37304;52.216;6.874;2023-05-10T14:20:02;7.05;;;4.18;;
51228;SDS011;37304;52.216;6.874;2023-05-10T14:25:03;9.93;;;3.90;;
51228;SDS011;37304;52.216;6.874;2023-05-10T14:30:04;6.78;;;3.67;;
51228;SDS011;37304;52.216;6.874;2023-05-10T14:35:06;8.15;;;3.67;;
51228;SDS011;37304;52.216;6.874;2023-05-10T14:40:07;6.47;;;3.45;;
51228;SDS011;37304;52.216;6.874;2023-05-10T14:45:09;5.95;;;2.95;;
51228;SDS011;37304;52.216;6.874;2023-05-10T14:50:10;8.13;;;3.50;;
51228;SDS011;37304;52.216;6.874;2023-05-10T14:55:11;6.93;;;3.23;;
51228;SDS011;37304;52.216;6.874;2023-05-10T15:00:12;5.83;;;2.93;;
51228;SDS011;37304;52.216;6.874;2023-05-10T15:05:12;5.93;;;2.75;;
51228;SDS011;37304;52.216;6.874;2023-05-10T15:10:14;5.00;;;2.55;;
51228;SDS011;37304;52.216;6.874;2023-05-10T15:15:14;5.65;;;2.45;;
51228;SDS011;37304;52.216;6.874;2023-05-10T15:20:15;3.87;;;2.30;;
51228;SDS011;37304;52.216;6.874;2023-05-10T15:25:15;4.82;;;2.05;;
51228;SDS011;37304;52.216;6.874;2023-05-10T15:30:16;6.80;;;2.83;;
51228;SDS011;37304;52.216;6.874;2023-05-10T15:35:16;6.47;;;2.87;;
51228;SDS011;37304;52.216;6.874;2023-05-10T15:40:17;5.93;;;2.60;;
51228;SDS011;37304;52.216;6.874;2023-05-10T15:45:17;6.40;;;3.07;;
51228;SDS011;37304;52.216;6.874;2023-05-10T15:50:18;6.87;;;3.23;;
51228;SDS011;37304;52.216;6.874;2023-05-10T15:55:18;5.40;;;2.87;;
51228;SDS011;37304;52.216;6.874;2023-05-10T16:00:19;6.40;;;2.60;;
51228;SDS011;37304;52.216;6.874;2023-05-10T16:05:20;5.10;;;2.13;;
51228;SDS011;37304;52.216;6.874;2023-05-10T16:10:21;5.15;;;2.55;;
51228;SDS011;37304;52.216;6.874;2023-05-10T16:15:21;5.37;;;2.60;;
51228;SDS011;37304;52.216;6.874;2023-05-10T16:20:21;3.80;;;2.57;;
51228;SDS011;37304;52.216;6.874;2023-05-10T16:25:22;5.20;;;3.20;;
51228;SDS011;37304;52.216;6.874;2023-05-10T16:30:22;6.23;;;3.10;;
51228;SDS011;37304;52.216;6.874;2023-05-10T16:35:26;5.45;;;2.75;;
51228;SDS011;37304;52.216;6.874;2023-05-10T16:40:26;5.10;;;2.43;;
51228;SDS011;37304;52.216;6.874;2023-05-10T16:45:26;6.73;;;3.10;;
51228;SDS011;37304;52.216;6.874;2023-05-10T16:50:27;5.00;;;2.77;;
51228;SDS011;37304;52.216;6.874;2023-05-10T16:55:27;6.00;;;2.93;;
51228;SDS011;37304;52.216;6.874;2023-05-10T17:00:28;9.10;;;2.93;;
51228;SDS011;37304;52.216;6.874;2023-05-10T17:05:28;9.75;;;2.60;;
51228;SDS011;37304;52.216;6.874;2023-05-10T17:10:29;6.07;;;2.63;;
51228;SDS011;37304;52.216;6.874;2023-05-10T17:15:29;5.23;;;2.50;;
51228;SDS011;37304;52.216;6.874;2023-05-10T17:20:29;4.50;;;2.67;;
51228;SDS011;37304;52.216;6.874;2023-05-10T17:25:30;4.80;;;2.40;;
51228;SDS011;37304;52.216;6.874;2023-05-10T17:30:30;5.10;;;2.77;;
51228;SDS011;37304;52.216;6.874;2023-05-10T17:35:31;5.57;;;2.53;;
51228;SDS011;37304;52.216;6.874;2023-05-10T17:40:32;7.43;;;3.07;;
51228;SDS011;37304;52.216;6.874;2023-05-10T17:45:32;6.80;;;2.63;;
51228;SDS011;37304;52.216;6.874;2023-05-10T17:50:33;9.38;;;2.90;;
51228;SDS011;37304;52.216;6.874;2023-05-10T17:55:33;6.70;;;2.80;;
51228;SDS011;37304;52.216;6.874;2023-05-10T18:00:33;5.87;;;3.13;;
51228;SDS011;37304;52.216;6.874;2023-05-10T18:05:35;6.20;;;3.22;;
51228;SDS011;37304;52.216;6.874;2023-05-10T18:10:37;11.27;;;3.53;;
51228;SDS011;37304;52.216;6.874;2023-05-10T18:15:41;7.05;;;3.10;;
51228;SDS011;37304;52.216;6.874;2023-05-10T18:20:42;9.70;;;3.35;;
51228;SDS011;37304;52.216;6.874;2023-05-10T18:25:42;6.28;;;3.00;;
51228;SDS011;37304;52.216;6.874;2023-05-10T18:30:43;6.00;;;3.13;;
51228;SDS011;37304;52.216;6.874;2023-05-10T18:35:43;7.25;;;3.22;;
51228;SDS011;37304;52.216;6.874;2023-05-10T18:40:44;5.20;;;3.03;;
51228;SDS011;37304;52.216;6.874;2023-05-10T18:45:44;5.80;;;3.27;;
51228;SDS011;37304;52.216;6.874;2023-05-10T18:50:45;8.70;;;3.30;;
51228;SDS011;37304;52.216;6.874;2023-05-10T18:55:45;5.60;;;2.90;;
51228;SDS011;37304;52.216;6.874;2023-05-10T19:00:45;6.53;;;3.50;;
51228;SDS011;37304;52.216;6.874;2023-05-10T19:05:46;5.97;;;3.20;;
51228;SDS011;37304;52.216;6.874;2023-05-10T19:10:47;7.35;;;3.40;;
51228;SDS011;37304;52.216;6.874;2023-05-10T19:15:59;6.50;;;3.40;;
51228;SDS011;37304;52.216;6.874;2023-05-10T19:21:03;8.52;;;4.13;;
51228;SDS011;37304;52.216;6.874;2023-05-10T19:26:07;7.82;;;3.63;;
51228;SDS011;37304;52.216;6.874;2023-05-10T19:31:08;8.05;;;4.07;;
51228;SDS011;37304;52.216;6.874;2023-05-10T19:36:08;9.43;;;4.30;;
51228;SDS011;37304;52.216;6.874;2023-05-10T19:41:09;9.37;;;4.57;;
51228;SDS011;37304;52.216;6.874;2023-05-10T19:46:12;11.57;;;4.57;;
51228;SDS011;37304;52.216;6.874;2023-05-10T19:51:12;9.10;;;4.25;;
51228;SDS011;37304;52.216;6.874;2023-05-10T19:56:13;10.97;;;4.47;;
51228;SDS011;37304;52.216;6.874;2023-05-10T20:01:13;12.00;;;4.85;;
51228;SDS011;37304;52.216;6.874;2023-05-10T20:06:14;9.60;;;4.17;;
51228;SDS011;37304;52.216;6.874;2023-05-10T20:11:14;9.93;;;4.72;;
51228;SDS011;37304;52.216;6.874;2023-05-10T20:16:15;9.20;;;4.23;;
51228;SDS011;37304;52.216;6.874;2023-05-10T20:21:15;9.07;;;4.72;;
51228;SDS011;37304;52.216;6.874;2023-05-10T20:26:16;11.82;;;3.90;;
51228;SDS011;37304;52.216;6.874;2023-05-10T20:31:16;8.73;;;3.80;;
51228;SDS011;37304;52.216;6.874;2023-05-10T20:36:20;10.63;;;4.60;;
51228;SDS011;37304;52.216;6.874;2023-05-10T20:41:23;8.35;;;4.57;;
51228;SDS011;37304;52.216;6.874;2023-05-10T20:46:24;9.57;;;5.25;;
51228;SDS011;37304;52.216;6.874;2023-05-10T20:51:26;10.85;;;4.90;;
51228;SDS011;37304;52.216;6.874;2023-05-10T20:56:29;13.80;;;6.40;;
51228;SDS011;37304;52.216;6.874;2023-05-10T21:01:30;15.18;;;7.50;;
51228;SDS011;37304;52.216;6.874;2023-05-10T21:06:30;18.90;;;8.20;;
51228;SDS011;37304;52.216;6.874;2023-05-10T21:11:32;20.80;;;8.45;;
51228;SDS011;37304;52.216;6.874;2023-05-10T21:16:34;19.73;;;9.95;;
51228;SDS011;37304;52.216;6.874;2023-05-10T21:21:35;22.02;;;10.57;;
51228;SDS011;37304;52.216;6.874;2023-05-10T21:26:35;18.40;;;9.73;;
51228;SDS011;37304;52.216;6.874;2023-05-10T21:31:36;19.45;;;9.60;;
51228;SDS011;37304;52.216;6.874;2023-05-10T21:36:36;15.17;;;8.80;;
51228;SDS011;37304;52.216;6.874;2023-05-10T21:41:37;17.10;;;8.67;;
51228;SDS011;37304;52.216;6.874;2023-05-10T21:46:37;23.27;;;10.13;;
51228;SDS011;37304;52.216;6.874;2023-05-10T21:51:37;14.93;;;8.33;;
51228;SDS011;37304;52.216;6.874;2023-05-10T21:56:38;16.63;;;8.60;;
51228;SDS011;37304;52.216;6.874;2023-05-10T22:01:38;19.07;;;8.50;;
51228;SDS011;37304;52.216;6.874;2023-05-10T22:06:38;14.70;;;7.43;;
51228;SDS011;37304;52.216;6.874;2023-05-10T22:11:39;14.03;;;8.00;;
51228;SDS011;37304;52.216;6.874;2023-05-10T22:16:39;13.00;;;6.97;;
51228;SDS011;37304;52.216;6.874;2023-05-10T22:21:40;13.52;;;6.75;;
51228;SDS011;37304;52.216;6.874;2023-05-10T22:26:40;13.00;;;7.00;;
51228;SDS011;37304;52.216;6.874;2023-05-10T22:31:41;13.37;;;6.60;;
51228;SDS011;37304;52.216;6.874;2023-05-10T22:36:41;12.77;;;6.93;;
51228;SDS011;37304;52.216;6.874;2023-05-10T22:41:41;12.63;;;6.77;;
51228;SDS011;37304;52.216;6.874;2023-05-10T22:46:42;14.43;;;6.60;;
51228;SDS011;37304;52.216;6.874;2023-05-10T22:51:42;11.17;;;6.33;;
51228;SDS011;37304;52.216;6.874;2023-05-10T22:56:42;12.87;;;7.10;;
51228;SDS011;37304;52.216;6.874;2023-05-10T23:01:43;12.77;;;6.40;;
51228;SDS011;37304;52.216;6.874;2023-05-10T23:06:43;12.10;;;6.63;;
51228;SDS011;37304;52.216;6.874;2023-05-10T23:11:44;15.45;;;7.65;;
51228;SDS011;37304;52.216;6.874;2023-05-10T23:16:45;13.60;;;7.30;;
51228;SDS011;37304;52.216;6.874;2023-05-10T23:21:45;11.37;;;6.67;;
51228;SDS011;37304;52.216;6.874;2023-05-10T23:26:46;12.32;;;6.30;;
51228;SDS011;37304;52.216;6.874;2023-05-10T23:31:49;12.00;;;6.53;;
51228;SDS011;37304;52.216;6.874;2023-05-10T23:36:50;16.27;;;8.32;;
51228;SDS011;37304;52.216;6.874;2023-05-10T23:41:50;14.60;;;7.20;;
51228;SDS011;37304;52.216;6.874;2023-05-10T23:46:51;13.23;;;7.10;;
51228;SDS011;37304;52.216;6.874;2023-05-10T23:51:51;15.10;;;6.87;;
51228;SDS011;37304;52.216;6.874;2023-05-10T23:56:51;16.13;;;6.87;;
